sensor_id;sensor_type;location;lat;lon;timestamp;pressure;altitude;pressure_sealevel;temperature;humidity
31771;BME280;18343;50.152;8.182;2024-02-21T00:01:04;98264.75;;;7.90;100.00
31771;BME280;18343;50.152;8.182;2024-02-21T00:03:52;98255.72;;;7.91;100.00
31771;BME280;18343;50.152;8.182;2024-02-21T00:06:37;98248.97;;;7.87;100.00
31771;BME280;18343;50.152;8.182;2024-02-21T00:09:22;98238.44;;;7.86;100.00
31771;BME280;18343;50.152;8.182;2024-02-21T00:12:09;98221.66;;;7.84;100.00
31771;BME280;18343;50.152;8.182;2024-02-21T00:14:55;98223.81;;;7.80;100.00
31771;BME280;18343;50.152;8.182;2024-02-21T00:17:44;98212.41;;;7.78;100.00
31771;BME280;18343;50.152;8.182;2024-02-21T00:20:29;98211.72;;;7.76;100.00
31771;BME280;18343;50.152;8.182;2024-02-21T00:23:16;98205.47;;;7.67;100.00
31771;BME280;18343;50.152;8.182;2024-02-21T00:26:13;98189.75;;;7.64;100.00
31771;BME280;18343;50.152;8.182;2024-02-21T00:29:01;98191.44;;;7.65;100.00
31771;BME280;18343;50.152;8.182;2024-02-21T00:31:52;98192.41;;;7.64;100.00
31771;BME280;18343;50.152;8.182;2024-02-21T00:34:40;98180.88;;;7.64;100.00
31771;BME280;18343;50.152;8.182;2024-02-21T00:37:25;98185.22;;;7.65;100.00
31771;BME280;18343;50.152;8.182;2024-02-21T00:40:12;98186.38;;;7.62;100.00
31771;BME280;18343;50.152;8.182;2024-02-21T00:42:57;98193.88;;;7.59;100.00
31771;BME280;18343;50.152;8.182;2024-02-21T00:45:43;98199.91;;;7.61;100.00
31771;BME280;18343;50.152;8.182;2024-02-21T00:48:29;98198.78;;;7.63;100.00
31771;BME280;18343;50.152;8.182;2024-02-21T00:51:15;98199.13;;;7.68;100.00
31771;BME280;18343;50.152;8.182;2024-02-21T00:54:00;98207.16;;;7.68;100.00
31771;BME280;18343;50.152;8.182;2024-02-21T00:56:46;98208.34;;;7.66;100.00
31771;BME280;18343;50.152;8.182;2024-02-21T00:59:32;98210.66;;;7.69;100.00
31771;BME280;18343;50.152;8.182;2024-02-21T01:02:18;98206.53;;;7.74;100.00
31771;BME280;18343;50.152;8.182;2024-02-21T01:05:05;98203.69;;;7.76;100.00
31771;BME280;18343;50.152;8.182;2024-02-21T01:07:50;98213.41;;;7.77;100.00
31771;BME280;18343;50.152;8.182;2024-02-21T01:10:35;98217.09;;;7.76;100.00
31771;BME280;18343;50.152;8.182;2024-02-21T01:13:19;98228.34;;;7.79;100.00
31771;BME280;18343;50.152;8.182;2024-02-21T01:16:05;98213.94;;;7.80;100.00
31771;BME280;18343;50.152;8.182;2024-02-21T01:18:50;98210.13;;;7.83;100.00
31771;BME280;18343;50.152;8.182;2024-02-21T01:21:36;98206.28;;;7.86;100.00
31771;BME280;18343;50.152;8.182;2024-02-21T01:24:22;98202.63;;;7.87;100.00
31771;BME280;18343;50.152;8.182;2024-02-21T01:27:08;98197.72;;;7.82;100.00
31771;BME280;18343;50.152;8.182;2024-02-21T01:29:54;98197.78;;;7.64;100.00
31771;BME280;18343;50.152;8.182;2024-02-21T01:32:40;98188.38;;;7.60;100.00
31771;BME280;18343;50.152;8.182;2024-02-21T01:35:24;98174.84;;;7.62;100.00
31771;BME280;18343;50.152;8.182;2024-02-21T01:38:12;98175.00;;;7.60;100.00
31771;BME280;18343;50.152;8.182;2024-02-21T01:41:01;98172.63;;;7.57;100.00
31771;BME280;18343;50.152;8.182;2024-02-21T01:43:46;98160.84;;;7.50;100.00
31771;BME280;18343;50.152;8.182;2024-02-21T01:46:35;98158.09;;;7.60;100.00
31771;BME280;18343;50.152;8.182;2024-02-21T01:49:23;98151.59;;;7.62;100.00
31771;BME280;18343;50.152;8.182;2024-02-21T01:52:10;98152.94;;;7.66;100.00
31771;BME280;18343;50.152;8.182;2024-02-21T01:55:02;98148.25;;;7.68;100.00
31771;BME280;18343;50.152;8.182;2024-02-21T01:57:50;98141.75;;;7.71;100.00
31771;BME280;18343;50.152;8.182;2024-02-21T02:00:35;98154.16;;;7.72;100.00
31771;BME280;18343;50.152;8.182;2024-02-21T02:03:21;98145.13;;;7.73;100.00
31771;BME280;18343;50.152;8.182;2024-02-21T02:06:08;98134.25;;;7.74;100.00
31771;BME280;18343;50.152;8.182;2024-02-21T02:08:55;98132.56;;;7.73;100.00
31771;BME280;18343;50.152;8.182;2024-02-21T02:11:49;98137.25;;;7.71;100.00
31771;BME280;18343;50.152;8.182;2024-02-21T02:14:34;98139.38;;;7.68;100.00
31771;BME280;18343;50.152;8.182;2024-02-21T02:17:19;98137.72;;;7.67;100.00
31771;BME280;18343;50.152;8.182;2024-02-21T02:20:07;98137.56;;;7.68;100.00
31771;BME280;18343;50.152;8.182;2024-02-21T02:22:52;98120.81;;;7.66;100.00
31771;BME280;18343;50.152;8.182;2024-02-21T02:25:39;98117.47;;;7.64;100.00
31771;BME280;18343;50.152;8.182;2024-02-21T02:28:25;98118.78;;;7.60;100.00
31771;BME280;18343;50.152;8.182;2024-02-21T02:31:09;98103.88;;;7.58;100.00
31771;BME280;18343;50.152;8.182;2024-02-21T02:33:54;98106.72;;;7.56;100.00
31771;BME280;18343;50.152;8.182;2024-02-21T02:36:44;98098.69;;;7.56;100.00
31771;BME280;18343;50.152;8.182;2024-02-21T02:39:28;98102.34;;;7.55;100.00
31771;BME280;18343;50.152;8.182;2024-02-21T02:42:19;98116.41;;;7.57;100.00
31771;BME280;18343;50.152;8.182;2024-02-21T02:45:07;98125.28;;;7.58;100.00
31771;BME280;18343;50.152;8.182;2024-02-21T02:47:52;98125.81;;;7.61;100.00
31771;BME280;18343;50.152;8.182;2024-02-21T02:50:38;98112.13;;;7.64;100.00
31771;BME280;18343;50.152;8.182;2024-02-21T02:53:23;98092.38;;;7.65;100.00
31771;BME280;18343;50.152;8.182;2024-02-21T02:56:14;98100.22;;;7.67;100.00
31771;BME280;18343;50.152;8.182;2024-02-21T02:59:01;98098.41;;;7.67;100.00
31771;BME280;18343;50.152;8.182;2024-02-21T03:01:45;98090.38;;;7.67;100.00
31771;BME280;18343;50.152;8.182;2024-02-21T03:04:31;98085.00;;;7.67;100.00
31771;BME280;18343;50.152;8.182;2024-02-21T03:07:17;98073.66;;;7.65;100.00
31771;BME280;18343;50.152;8.182;2024-02-21T03:10:02;98063.78;;;7.66;100.00
31771;BME280;18343;50.152;8.182;2024-02-21T03:12:49;98044.53;;;7.62;100.00
31771;BME280;18343;50.152;8.182;2024-02-21T03:15:37;98051.19;;;7.58;100.00
31771;BME280;18343;50.152;8.182;2024-02-21T03:18:22;98047.81;;;7.56;100.00
31771;BME280;18343;50.152;8.182;2024-02-21T03:21:07;98037.28;;;7.55;100.00
31771;BME280;18343;50.152;8.182;2024-02-21T03:23:52;98032.91;;;7.54;100.00
31771;BME280;18343;50.152;8.182;2024-02-21T03:26:37;98025.06;;;7.52;100.00
31771;BME280;18343;50.152;8.182;2024-02-21T03:29:22;98025.22;;;7.51;100.00
31771;BME280;18343;50.152;8.182;2024-02-21T03:32:08;98016.34;;;7.50;100.00
31771;BME280;18343;50.152;8.182;2024-02-21T03:34:53;98017.34;;;7.49;100.00
31771;BME280;18343;50.152;8.182;2024-02-21T03:37:40;98034.06;;;7.51;100.00
31771;BME280;18343;50.152;8.182;2024-02-21T03:40:25;98024.53;;;7.48;100.00
31771;BME280;18343;50.152;8.182;2024-02-21T03:43:10;98030.19;;;7.45;100.00
31771;BME280;18343;50.152;8.182;2024-02-21T03:45:55;98028.66;;;7.43;100.00
31771;BME280;18343;50.152;8.182;2024-02-21T03:48:45;98028.66;;;7.43;100.00
31771;BME280;18343;50.152;8.182;2024-02-21T03:51:30;98035.00;;;7.34;100.00
31771;BME280;18343;50.152;8.182;2024-02-21T03:54:18;98033.16;;;7.34;100.00
31771;BME280;18343;50.152;8.182;2024-02-21T03:57:05;98038.13;;;7.29;100.00
31771;BME280;18343;50.152;8.182;2024-02-21T03:59:50;98044.00;;;7.33;100.00
31771;BME280;18343;50.152;8.182;2024-02-21T04:02:35;98038.34;;;7.36;100.00
31771;BME280;18343;50.152;8.182;2024-02-21T04:05:22;98027.44;;;7.29;100.00
31771;BME280;18343;50.152;8.182;2024-02-21T04:08:08;98029.09;;;7.30;100.00
31771;BME280;18343;50.152;8.182;2024-02-21T04:10:52;98022.75;;;7.31;100.00
31771;BME280;18343;50.152;8.182;2024-02-21T04:13:38;98007.56;;;7.32;100.00
31771;BME280;18343;50.152;8.182;2024-02-21T04:16:22;98007.56;;;7.32;100.00
31771;BME280;18343;50.152;8.182;2024-02-21T04:19:07;98009.53;;;7.30;100.00
31771;BME280;18343;50.152;8.182;2024-02-21T04:21:54;98004.34;;;7.28;100.00
31771;BME280;18343;50.152;8.182;2024-02-21T04:24:39;98006.44;;;7.17;100.00
31771;BME280;18343;50.152;8.182;2024-02-21T04:27:24;97997.72;;;7.14;100.00
31771;BME280;18343;50.152;8.182;2024-02-21T04:30:10;97980.84;;;7.14;100.00
31771;BME280;18343;50.152;8.182;2024-02-21T04:32:58;97984.03;;;7.18;100.00
31771;BME280;18343;50.152;8.182;2024-02-21T04:35:43;97977.69;;;7.19;100.00
31771;BME280;18343;50.152;8.182;2024-02-21T04:38:29;97983.06;;;7.19;100.00
31771;BME280;18343;50.152;8.182;2024-02-21T04:41:18;97983.38;;;7.16;100.00
31771;BME280;18343;50.152;8.182;2024-02-21T04:44:05;97974.50;;;7.15;100.00
31771;BME280;18343;50.152;8.182;2024-02-21T04:46:50;97966.78;;;7.12;100.00
31771;BME280;18343;50.152;8.182;2024-02-21T04:49:35;97958.59;;;7.13;100.00
31771;BME280;18343;50.152;8.182;2024-02-21T04:52:19;97957.78;;;7.13;100.00
31771;BME280;18343;50.152;8.182;2024-02-21T04:55:08;97961.25;;;7.05;100.00
31771;BME280;18343;50.152;8.182;2024-02-21T04:57:53;97967.06;;;7.01;100.00
31771;BME280;18343;50.152;8.182;2024-02-21T05:00:38;97967.22;;;6.99;100.00
31771;BME280;18343;50.152;8.182;2024-02-21T05:03:23;97969.91;;;6.99;100.00
31771;BME280;18343;50.152;8.182;2024-02-21T05:06:07;97973.25;;;7.01;100.00
31771;BME280;18343;50.152;8.182;2024-02-21T05:08:52;97968.59;;;7.03;100.00
31771;BME280;18343;50.152;8.182;2024-02-21T05:11:43;97980.13;;;7.04;100.00
31771;BME280;18343;50.152;8.182;2024-02-21T05:14:33;97981.28;;;7.01;100.00
31771;BME280;18343;50.152;8.182;2024-02-21T05:17:25;97983.50;;;7.06;100.00
31771;BME280;18343;50.152;8.182;2024-02-21T05:20:14;97990.38;;;7.08;100.00
31771;BME280;18343;50.152;8.182;2024-02-21T05:22:59;97983.19;;;7.09;100.00
31771;BME280;18343;50.152;8.182;2024-02-21T05:25:50;97978.97;;;7.06;100.00
31771;BME280;18343;50.152;8.182;2024-02-21T05:28:42;97968.44;;;7.05;100.00
31771;BME280;18343;50.152;8.182;2024-02-21T05:31:55;97963.56;;;7.00;100.00
31771;BME280;18343;50.152;8.182;2024-02-21T05:34:40;97953.19;;;6.97;100.00
31771;BME280;18343;50.152;8.182;2024-02-21T05:37:25;97949.81;;;6.95;100.00
31771;BME280;18343;50.152;8.182;2024-02-21T05:40:12;97950.59;;;6.88;100.00
31771;BME280;18343;50.152;8.182;2024-02-21T05:42:57;97948.97;;;6.69;100.00
31771;BME280;18343;50.152;8.182;2024-02-21T05:45:44;97935.28;;;6.72;100.00
31771;BME280;18343;50.152;8.182;2024-02-21T05:48:28;97939.50;;;6.74;100.00
31771;BME280;18343;50.152;8.182;2024-02-21T05:51:13;97943.00;;;6.75;100.00
31771;BME280;18343;50.152;8.182;2024-02-21T05:53:58;97929.94;;;6.72;100.00
31771;BME280;18343;50.152;8.182;2024-02-21T05:56:55;97928.97;;;6.73;100.00
31771;BME280;18343;50.152;8.182;2024-02-21T05:59:40;97916.22;;;6.67;100.00
31771;BME280;18343;50.152;8.182;2024-02-21T06:02:28;97908.19;;;6.67;100.00
31771;BME280;18343;50.152;8.182;2024-02-21T06:05:13;97916.84;;;6.61;100.00
31771;BME280;18343;50.152;8.182;2024-02-21T06:07:59;97914.16;;;6.61;100.00
31771;BME280;18343;50.152;8.182;2024-02-21T06:10:45;97923.28;;;6.50;100.00
31771;BME280;18343;50.152;8.182;2024-02-21T06:13:30;97925.28;;;6.48;100.00
31771;BME280;18343;50.152;8.182;2024-02-21T06:16:15;97923.97;;;6.52;100.00
31771;BME280;18343;50.152;8.182;2024-02-21T06:19:01;97924.28;;;6.49;100.00
31771;BME280;18343;50.152;8.182;2024-02-21T06:21:46;97918.16;;;6.39;100.00
31771;BME280;18343;50.152;8.182;2024-02-21T06:24:33;97911.16;;;6.38;100.00
31771;BME280;18343;50.152;8.182;2024-02-21T06:27:23;97903.66;;;6.41;100.00
31771;BME280;18343;50.152;8.182;2024-02-21T06:30:09;97898.47;;;6.40;100.00
31771;BME280;18343;50.152;8.182;2024-02-21T06:32:56;97890.47;;;6.40;100.00
31771;BME280;18343;50.152;8.182;2024-02-21T06:35:45;97895.13;;;6.38;100.00
31771;BME280;18343;50.152;8.182;2024-02-21T06:38:35;97894.56;;;6.26;100.00
31771;BME280;18343;50.152;8.182;2024-02-21T06:41:23;97899.75;;;6.28;100.00
31771;BME280;18343;50.152;8.182;2024-02-21T06:44:09;97897.41;;;6.33;100.00
31771;BME280;18343;50.152;8.182;2024-02-21T06:46:54;97900.94;;;6.33;100.00
31771;BME280;18343;50.152;8.182;2024-02-21T06:49:39;97905.44;;;6.33;100.00
31771;BME280;18343;50.152;8.182;2024-02-21T06:52:26;97906.28;;;6.33;100.00
31771;BME280;18343;50.152;8.182;2024-02-21T06:55:11;97900.78;;;6.35;100.00
31771;BME280;18343;50.152;8.182;2024-02-21T06:57:56;97906.50;;;6.40;100.00
31771;BME280;18343;50.152;8.182;2024-02-21T07:00:43;97911.00;;;6.39;100.00
31771;BME280;18343;50.152;8.182;2024-02-21T07:03:27;97910.31;;;6.37;100.00
31771;BME280;18343;50.152;8.182;2024-02-21T07:06:15;97911.31;;;6.36;100.00
31771;BME280;18343;50.152;8.182;2024-02-21T07:09:02;97901.47;;;6.37;100.00
31771;BME280;18343;50.152;8.182;2024-02-21T07:11:48;97894.75;;;6.33;100.00
31771;BME280;18343;50.152;8.182;2024-02-21T07:14:33;97888.88;;;6.29;100.00
31771;BME280;18343;50.152;8.182;2024-02-21T07:17:18;97900.78;;;6.35;100.00
31771;BME280;18343;50.152;8.182;2024-02-21T07:20:04;97896.28;;;6.35;100.00
31771;BME280;18343;50.152;8.182;2024-02-21T07:22:53;97903.97;;;6.38;100.00
31771;BME280;18343;50.152;8.182;2024-02-21T07:25:39;97899.00;;;6.43;100.00
31771;BME280;18343;50.152;8.182;2024-02-21T07:28:27;97899.53;;;6.47;100.00
31771;BME280;18343;50.152;8.182;2024-02-21T07:31:12;97892.84;;;6.43;100.00
31771;BME280;18343;50.152;8.182;2024-02-21T07:33:56;97897.78;;;6.38;100.00
31771;BME280;18343;50.152;8.182;2024-02-21T07:36:41;97894.81;;;6.41;100.00
31771;BME280;18343;50.152;8.182;2024-02-21T07:39:28;97895.34;;;6.44;100.00
31771;BME280;18343;50.152;8.182;2024-02-21T07:42:14;97899.69;;;6.45;100.00
31771;BME280;18343;50.152;8.182;2024-02-21T07:44:59;97895.88;;;6.48;100.00
31771;BME280;18343;50.152;8.182;2024-02-21T07:47:43;97900.75;;;6.53;100.00
31771;BME280;18343;50.152;8.182;2024-02-21T07:50:28;97900.94;;;6.59;100.00
31771;BME280;18343;50.152;8.182;2024-02-21T07:53:15;97895.00;;;6.65;100.00
31771;BME280;18343;50.152;8.182;2024-02-21T07:56:00;97891.53;;;6.73;100.00
31771;BME280;18343;50.152;8.182;2024-02-21T07:58:49;97884.56;;;6.80;100.00
31771;BME280;18343;50.152;8.182;2024-02-21T08:01:35;97881.75;;;6.82;100.00
31771;BME280;18343;50.152;8.182;2024-02-21T08:04:20;97875.56;;;6.81;100.00
31771;BME280;18343;50.152;8.182;2024-02-21T08:07:05;97872.22;;;6.79;100.00
31771;BME280;18343;50.152;8.182;2024-02-21T08:09:50;97865.38;;;6.85;100.00
31771;BME280;18343;50.152;8.182;2024-02-21T08:12:36;97875.06;;;6.86;100.00
31771;BME280;18343;50.152;8.182;2024-02-21T08:15:22;97868.88;;;6.85;100.00
31771;BME280;18343;50.152;8.182;2024-02-21T08:18:07;97863.19;;;6.80;100.00
31771;BME280;18343;50.152;8.182;2024-02-21T08:20:52;97855.19;;;6.88;100.00
31771;BME280;18343;50.152;8.182;2024-02-21T08:23:38;97857.53;;;6.83;100.00
31771;BME280;18343;50.152;8.182;2024-02-21T08:26:29;97855.88;;;6.90;100.00
31771;BME280;18343;50.152;8.182;2024-02-21T08:29:13;97847.00;;;6.82;100.00
31771;BME280;18343;50.152;8.182;2024-02-21T08:32:00;97853.53;;;6.87;100.00
31771;BME280;18343;50.152;8.182;2024-02-21T08:34:45;97853.41;;;6.97;100.00
31771;BME280;18343;50.152;8.182;2024-02-21T08:37:30;97857.44;;;7.01;100.00
31771;BME280;18343;50.152;8.182;2024-02-21T08:40:16;97850.63;;;7.06;100.00
31771;BME280;18343;50.152;8.182;2024-02-21T08:43:01;97850.22;;;6.93;100.00
31771;BME280;18343;50.152;8.182;2024-02-21T08:45:48;97847.28;;;7.04;100.00
31771;BME280;18343;50.152;8.182;2024-02-21T08:48:37;97851.78;;;7.12;100.00
31771;BME280;18343;50.152;8.182;2024-02-21T08:51:35;97841.78;;;7.14;100.00
31771;BME280;18343;50.152;8.182;2024-02-21T08:54:26;97837.78;;;7.18;100.00
31771;BME280;18343;50.152;8.182;2024-02-21T08:57:11;97832.78;;;7.23;100.00
31771;BME280;18343;50.152;8.182;2024-02-21T08:59:56;97822.56;;;7.19;100.00
31771;BME280;18343;50.152;8.182;2024-02-21T09:02:41;97815.25;;;7.29;100.00
31771;BME280;18343;50.152;8.182;2024-02-21T09:05:30;97810.88;;;7.20;100.00
31771;BME280;18343;50.152;8.182;2024-02-21T09:08:15;97804.41;;;7.30;100.00
31771;BME280;18343;50.152;8.182;2024-02-21T09:11:00;97808.75;;;7.39;100.00
31771;BME280;18343;50.152;8.182;2024-02-21T09:13:45;97807.44;;;7.52;100.00
31771;BME280;18343;50.152;8.182;2024-02-21T09:16:32;97808.75;;;7.39;100.00
31771;BME280;18343;50.152;8.182;2024-02-21T09:19:20;97809.25;;;7.43;100.00
31771;BME280;18343;50.152;8.182;2024-02-21T09:22:07;97796.56;;;7.45;100.00
31771;BME280;18343;50.152;8.182;2024-02-21T09:24:51;97786.38;;;7.57;100.00
31771;BME280;18343;50.152;8.182;2024-02-21T09:27:43;97790.56;;;7.67;100.00
31771;BME280;18343;50.152;8.182;2024-02-21T09:30:33;97787.25;;;7.81;100.00
31771;BME280;18343;50.152;8.182;2024-02-21T09:33:23;97785.41;;;7.90;100.00
31771;BME280;18343;50.152;8.182;2024-02-21T09:36:08;97786.56;;;7.71;100.00
31771;BME280;18343;50.152;8.182;2024-02-21T09:38:55;97783.53;;;7.66;100.00
31771;BME280;18343;50.152;8.182;2024-02-21T09:41:45;97786.56;;;7.63;100.00
31771;BME280;18343;50.152;8.182;2024-02-21T09:44:37;97777.03;;;7.69;100.00
31771;BME280;18343;50.152;8.182;2024-02-21T09:47:33;97771.84;;;7.75;100.00
31771;BME280;18343;50.152;8.182;2024-02-21T09:50:26;97766.50;;;7.84;100.00
31771;BME280;18343;50.152;8.182;2024-02-21T09:53:13;97769.81;;;7.94;100.00
31771;BME280;18343;50.152;8.182;2024-02-21T09:56:02;97763.47;;;8.03;100.00
31771;BME280;18343;50.152;8.182;2024-02-21T09:58:49;97767.69;;;7.89;100.00
31771;BME280;18343;50.152;8.182;2024-02-21T10:01:35;97761.81;;;7.86;100.00
31771;BME280;18343;50.152;8.182;2024-02-21T10:04:21;97755.78;;;8.00;100.00
31771;BME280;18343;50.152;8.182;2024-02-21T10:07:06;97750.91;;;8.11;100.00
31771;BME280;18343;50.152;8.182;2024-02-21T10:10:01;97753.56;;;8.28;100.00
31771;BME280;18343;50.152;8.182;2024-02-21T10:12:55;97747.22;;;8.37;100.00
31771;BME280;18343;50.152;8.182;2024-02-21T10:15:40;97739.16;;;8.29;100.00
31771;BME280;18343;50.152;8.182;2024-02-21T10:18:29;97738.97;;;8.30;100.00
31771;BME280;18343;50.152;8.182;2024-02-21T10:21:14;97733.97;;;8.27;100.00
31771;BME280;18343;50.152;8.182;2024-02-21T10:24:05;97734.13;;;8.26;100.00
31771;BME280;18343;50.152;8.182;2024-02-21T10:27:03;97725.25;;;8.25;100.00
31771;BME280;18343;50.152;8.182;2024-02-21T10:30:00;97721.94;;;8.15;100.00
31771;BME280;18343;50.152;8.182;2024-02-21T10:32:50;97717.72;;;8.29;100.00
31771;BME280;18343;50.152;8.182;2024-02-21T10:35:36;97715.22;;;8.43;100.00
31771;BME280;18343;50.152;8.182;2024-02-21T10:38:23;97711.47;;;8.53;100.00
31771;BME280;18343;50.152;8.182;2024-02-21T10:41:08;97711.19;;;8.47;100.00
31771;BME280;18343;50.152;8.182;2024-02-21T10:43:55;97705.44;;;8.51;100.00
31771;BME280;18343;50.152;8.182;2024-02-21T10:46:43;97704.59;;;8.58;100.00
31771;BME280;18343;50.152;8.182;2024-02-21T10:49:30;97700.03;;;8.67;100.00
31771;BME280;18343;50.152;8.182;2024-02-21T10:52:31;97691.59;;;8.78;100.00
31771;BME280;18343;50.152;8.182;2024-02-21T10:55:24;97694.91;;;8.88;100.00
31771;BME280;18343;50.152;8.182;2024-02-21T10:58:11;97685.19;;;8.87;100.00
31771;BME280;18343;50.152;8.182;2024-02-21T11:01:00;97690.88;;;8.92;100.00
31771;BME280;18343;50.152;8.182;2024-02-21T11:03:57;97679.13;;;8.93;100.00
31771;BME280;18343;50.152;8.182;2024-02-21T11:06:43;97677.94;;;8.96;100.00
31771;BME280;18343;50.152;8.182;2024-02-21T11:09:31;97675.75;;;8.99;100.00
31771;BME280;18343;50.152;8.182;2024-02-21T11:12:21;97674.00;;;9.06;100.00
31771;BME280;18343;50.152;8.182;2024-02-21T11:15:09;97671.81;;;9.10;100.00
31771;BME280;18343;50.152;8.182;2024-02-21T11:17:56;97658.88;;;9.13;100.00
31771;BME280;18343;50.152;8.182;2024-02-21T11:20:50;97663.22;;;8.92;100.00
31771;BME280;18343;50.152;8.182;2024-02-21T11:23:35;97651.66;;;8.91;100.00
31771;BME280;18343;50.152;8.182;2024-02-21T11:26:21;97654.81;;;8.95;100.00
31771;BME280;18343;50.152;8.182;2024-02-21T11:29:06;97651.44;;;9.01;100.00
31771;BME280;18343;50.152;8.182;2024-02-21T11:31:55;97637.75;;;9.10;100.00
31771;BME280;18343;50.152;8.182;2024-02-21T11:34:40;97632.66;;;9.24;100.00
31771;BME280;18343;50.152;8.182;2024-02-21T11:37:29;97630.50;;;9.19;100.00
31771;BME280;18343;50.152;8.182;2024-02-21T11:40:17;97626.84;;;9.12;100.00
31771;BME280;18343;50.152;8.182;2024-02-21T11:43:02;97612.59;;;8.89;100.00
31771;BME280;18343;50.152;8.182;2024-02-21T11:45:47;97612.91;;;8.94;100.00
31771;BME280;18343;50.152;8.182;2024-02-21T11:48:32;97612.03;;;9.01;100.00
31771;BME280;18343;50.152;8.182;2024-02-21T11:51:36;97601.34;;;8.93;100.00
31771;BME280;18343;50.152;8.182;2024-02-21T11:54:23;97598.22;;;9.04;100.00
31771;BME280;18343;50.152;8.182;2024-02-21T11:57:08;97587.44;;;9.12;100.00
31771;BME280;18343;50.152;8.182;2024-02-21T11:59:53;97575.88;;;9.12;100.00
31771;BME280;18343;50.152;8.182;2024-02-21T12:02:40;97571.47;;;9.19;100.00
31771;BME280;18343;50.152;8.182;2024-02-21T12:05:28;97569.38;;;9.29;100.00
31771;BME280;18343;50.152;8.182;2024-02-21T12:08:15;97567.78;;;9.35;100.00
31771;BME280;18343;50.152;8.182;2024-02-21T12:11:02;97560.09;;;9.32;100.00
31771;BME280;18343;50.152;8.182;2024-02-21T12:14:00;97553.47;;;9.42;100.00
31771;BME280;18343;50.152;8.182;2024-02-21T12:16:45;97546.19;;;9.51;100.00
31771;BME280;18343;50.152;8.182;2024-02-21T12:19:31;97544.53;;;9.50;100.00
31771;BME280;18343;50.152;8.182;2024-02-21T12:22:20;97548.69;;;9.53;100.00
31771;BME280;18343;50.152;8.182;2024-02-21T12:25:16;97528.59;;;9.48;100.00
31771;BME280;18343;50.152;8.182;2024-02-21T12:28:02;97518.69;;;9.49;100.00
31771;BME280;18343;50.152;8.182;2024-02-21T12:30:47;97503.78;;;9.46;100.00
31771;BME280;18343;50.152;8.182;2024-02-21T12:33:33;97503.03;;;9.38;100.00
31771;BME280;18343;50.152;8.182;2024-02-21T12:36:18;97494.25;;;9.29;100.00
31771;BME280;18343;50.152;8.182;2024-02-21T12:39:03;97488.94;;;9.36;100.00
31771;BME280;18343;50.152;8.182;2024-02-21T12:41:48;97505.28;;;9.49;100.00
31771;BME280;18343;50.152;8.182;2024-02-21T12:44:34;97506.81;;;9.58;100.00
31771;BME280;18343;50.152;8.182;2024-02-21T12:47:21;97480.47;;;9.47;100.00
31771;BME280;18343;50.152;8.182;2024-02-21T12:50:09;97490.16;;;9.33;100.00
31771;BME280;18343;50.152;8.182;2024-02-21T12:52:54;97485.81;;;9.32;100.00
31771;BME280;18343;50.152;8.182;2024-02-21T12:55:40;97473.59;;;9.44;100.00
31771;BME280;18343;50.152;8.182;2024-02-21T12:58:29;97468.13;;;9.23;100.00
31771;BME280;18343;50.152;8.182;2024-02-21T13:01:15;97450.25;;;9.30;100.00
31771;BME280;18343;50.152;8.182;2024-02-21T13:04:03;97438.72;;;9.30;100.00
31771;BME280;18343;50.152;8.182;2024-02-21T13:06:47;97439.25;;;9.40;100.00
31771;BME280;18343;50.152;8.182;2024-02-21T13:09:32;97430.56;;;9.38;100.00
31771;BME280;18343;50.152;8.182;2024-02-21T13:12:17;97420.47;;;9.40;100.00
31771;BME280;18343;50.152;8.182;2024-02-21T13:15:01;97425.84;;;9.40;100.00
31771;BME280;18343;50.152;8.182;2024-02-21T13:17:48;97420.09;;;9.43;100.00
31771;BME280;18343;50.152;8.182;2024-02-21T13:20:33;97418.44;;;9.42;100.00
31771;BME280;18343;50.152;8.182;2024-02-21T13:23:19;97405.13;;;9.34;100.00
31771;BME280;18343;50.152;8.182;2024-02-21T13:26:07;97403.25;;;9.49;100.00
31771;BME280;18343;50.152;8.182;2024-02-21T13:28:52;97391.88;;;9.47;100.00
31771;BME280;18343;50.152;8.182;2024-02-21T13:31:39;97389.66;;;9.36;100.00
31771;BME280;18343;50.152;8.182;2024-02-21T13:34:26;97385.13;;;9.51;100.00
31771;BME280;18343;50.152;8.182;2024-02-21T13:37:12;97376.56;;;9.62;100.00
31771;BME280;18343;50.152;8.182;2024-02-21T13:39:56;97377.78;;;9.60;100.00
31771;BME280;18343;50.152;8.182;2024-02-21T13:42:41;97361.91;;;9.43;100.00
31771;BME280;18343;50.152;8.182;2024-02-21T13:45:27;97351.72;;;9.54;100.00
31771;BME280;18343;50.152;8.182;2024-02-21T13:48:11;97353.38;;;9.55;100.00
31771;BME280;18343;50.152;8.182;2024-02-21T13:50:58;97340.88;;;9.47;100.00
31771;BME280;18343;50.152;8.182;2024-02-21T13:53:52;97331.72;;;9.56;100.00
31771;BME280;18343;50.152;8.182;2024-02-21T13:56:37;97334.63;;;9.61;100.00
31771;BME280;18343;50.152;8.182;2024-02-21T13:59:21;97329.91;;;9.63;100.00
31771;BME280;18343;50.152;8.182;2024-02-21T14:02:13;97336.53;;;9.46;100.00
31771;BME280;18343;50.152;8.182;2024-02-21T14:05:00;97336.81;;;9.51;100.00
31771;BME280;18343;50.152;8.182;2024-02-21T14:07:46;97327.28;;;9.34;100.00
31771;BME280;18343;50.152;8.182;2024-02-21T14:10:34;97307.00;;;9.46;100.00
31771;BME280;18343;50.152;8.182;2024-02-21T14:13:19;97295.91;;;9.49;100.00
31771;BME280;18343;50.152;8.182;2024-02-21T14:16:09;97289.00;;;9.61;100.00
31771;BME280;18343;50.152;8.182;2024-02-21T14:18:58;97272.13;;;9.67;100.00
31771;BME280;18343;50.152;8.182;2024-02-21T14:21:47;97271.63;;;9.57;100.00
31771;BME280;18343;50.152;8.182;2024-02-21T14:24:33;97278.25;;;9.61;100.00
31771;BME280;18343;50.152;8.182;2024-02-21T14:27:18;97289.38;;;9.58;100.00
31771;BME280;18343;50.152;8.182;2024-02-21T14:30:33;97282.03;;;9.45;100.00
31771;BME280;18343;50.152;8.182;2024-02-21T14:33:19;97245.47;;;9.44;100.00
31771;BME280;18343;50.152;8.182;2024-02-21T14:36:07;97250.34;;;9.20;100.00
31771;BME280;18343;50.152;8.182;2024-02-21T14:38:54;97253.34;;;9.31;100.00
31771;BME280;18343;50.152;8.182;2024-02-21T14:41:41;97261.13;;;9.41;100.00
31771;BME280;18343;50.152;8.182;2024-02-21T14:44:26;97233.72;;;9.45;100.00